createdAt,value
2018-07-26T00:00:38.034Z,6.00
2018-07-26T00:01:38.069Z,6.50
2018-07-26T00:02:38.079Z,8.70
2018-07-26T00:03:38.106Z,6.00
2018-07-26T00:04:38.127Z,6.40
2018-07-26T00:05:38.144Z,7.30
2018-07-26T00:06:38.178Z,6.90
2018-07-26T00:07:38.192Z,8.20
2018-07-26T00:08:38.223Z,9.80
2018-07-26T00:09:38.236Z,7.00
2018-07-26T00:10:38.263Z,8.20
2018-07-26T00:11:38.285Z,6.00
2018-07-26T00:12:38.311Z,7.80
2018-07-26T00:13:38.334Z,7.90
2018-07-26T00:14:38.349Z,8.00
2018-07-26T00:15:38.371Z,6.50
2018-07-26T00:16:38.402Z,7.20
2018-07-26T00:17:38.422Z,8.00
2018-07-26T00:18:38.457Z,7.80
2018-07-26T00:19:38.463Z,7.90
2018-07-26T00:20:38.483Z,6.50
2018-07-26T00:21:38.559Z,7.70
2018-07-26T00:22:38.542Z,8.70
2018-07-26T00:23:38.573Z,7.90
2018-07-26T00:24:38.575Z,8.40
2018-07-26T00:25:38.602Z,5.90
2018-07-26T00:26:38.633Z,7.60
2018-07-26T00:27:38.700Z,8.80
2018-07-26T00:28:38.670Z,6.60
2018-07-26T00:29:38.694Z,7.40
2018-07-26T00:30:38.725Z,9.00
2018-07-26T00:31:38.732Z,7.20
2018-07-26T00:32:38.760Z,6.30
2018-07-26T00:33:38.775Z,7.10
2018-07-26T00:34:38.803Z,7.20
2018-07-26T00:35:38.819Z,7.20
2018-07-26T00:36:38.870Z,10.80
2018-07-26T00:37:38.867Z,8.00
2018-07-26T00:38:38.886Z,7.70
2018-07-26T00:39:38.911Z,8.40
2018-07-26T00:40:38.945Z,8.20
2018-07-26T00:41:38.951Z,7.50
2018-07-26T00:42:39.002Z,7.50
2018-07-26T00:43:39.002Z,7.40
2018-07-26T00:44:39.019Z,7.60
2018-07-26T00:45:39.045Z,8.10
2018-07-26T00:46:39.069Z,9.60
2018-07-26T00:47:39.136Z,9.50
2018-07-26T00:48:39.160Z,7.20
2018-07-26T00:49:39.130Z,7.70
2018-07-26T00:50:39.152Z,6.80
2018-07-26T00:51:39.176Z,7.70
2018-07-26T00:52:39.209Z,7.50
2018-07-26T00:53:39.224Z,7.60
2018-07-26T00:54:39.251Z,7.90
2018-07-26T00:55:39.263Z,10.10
2018-07-26T00:56:39.300Z,7.40
2018-07-26T00:57:39.332Z,7.80
2018-07-26T00:58:39.342Z,8.10
2018-07-26T00:59:39.366Z,7.90
2018-07-26T01:00:39.375Z,7.30
2018-07-26T01:01:39.417Z,8.60
2018-07-26T01:02:39.453Z,7.00
2018-07-26T01:03:39.451Z,10.40
2018-07-26T01:04:39.469Z,7.70
2018-07-26T01:05:39.493Z,6.60
2018-07-26T01:06:39.508Z,7.70
2018-07-26T01:07:39.539Z,7.50
2018-07-26T01:08:39.556Z,7.60
2018-07-26T01:09:39.622Z,7.10
2018-07-26T01:10:39.596Z,10.80
2018-07-26T01:11:39.624Z,9.60
2018-07-26T01:12:39.644Z,6.90
2018-07-26T01:13:39.669Z,10.20
2018-07-26T01:14:39.682Z,9.80
2018-07-26T01:15:39.714Z,8.60
2018-07-26T01:16:39.740Z,7.60
2018-07-26T01:17:39.764Z,8.70
2018-07-26T01:18:39.778Z,7.80
2018-07-26T01:19:39.793Z,8.40
2018-07-26T01:20:39.834Z,5.90
2018-07-26T01:21:39.840Z,6.20
2018-07-26T01:22:39.857Z,8.40
2018-07-26T01:23:39.885Z,7.10
2018-07-26T01:24:39.905Z,8.00
2018-07-26T01:25:39.926Z,9.00
2018-07-26T01:26:39.950Z,6.30
2018-07-26T01:27:39.972Z,7.10
2018-07-26T01:28:39.988Z,6.70
2018-07-26T01:29:40.017Z,9.50
2018-07-26T01:30:40.040Z,7.40
2018-07-26T01:31:40.062Z,9.70
2018-07-26T01:32:40.083Z,9.10
2018-07-26T01:33:40.110Z,8.00
2018-07-26T01:34:40.128Z,7.20
2018-07-26T01:35:40.149Z,8.50
2018-07-26T01:36:40.186Z,9.00
2018-07-26T01:37:40.206Z,6.20
2018-07-26T01:38:40.226Z,7.50
2018-07-26T01:39:40.235Z,8.20
2018-07-26T01:40:40.266Z,8.00
2018-07-26T01:41:40.283Z,7.80
2018-07-26T01:42:40.305Z,7.00
2018-07-26T01:43:40.325Z,8.00
2018-07-26T01:44:40.355Z,7.10
2018-07-26T01:45:40.362Z,6.20
2018-07-26T01:46:40.395Z,10.50
2018-07-26T01:47:40.417Z,10.10
2018-07-26T01:48:40.445Z,7.50
2018-07-26T01:49:40.452Z,7.60
2018-07-26T01:50:40.501Z,9.00
2018-07-26T01:51:40.503Z,6.50
2018-07-26T01:52:40.519Z,9.40
2018-07-26T01:53:40.554Z,10.20
2018-07-26T01:54:40.584Z,9.60
2018-07-26T01:55:40.606Z,7.40
2018-07-26T01:56:40.611Z,6.60
2018-07-26T01:57:40.639Z,12.20
2018-07-26T01:58:40.657Z,6.30
2018-07-26T01:59:40.669Z,7.70
2018-07-26T02:00:40.741Z,10.10
2018-07-26T02:01:40.769Z,6.00
2018-07-26T02:02:40.746Z,8.40
2018-07-26T02:03:40.787Z,6.20
2018-07-26T02:04:40.800Z,9.30
2018-07-26T02:05:40.809Z,8.50
2018-07-26T02:06:40.843Z,7.60
2018-07-26T02:07:40.847Z,7.40
2018-07-26T02:08:40.870Z,6.90
2018-07-26T02:09:40.920Z,10.10
2018-07-26T02:10:40.931Z,7.40
2018-07-26T02:11:40.934Z,7.00
2018-07-26T02:12:40.959Z,7.60
2018-07-26T02:13:40.979Z,7.10
2018-07-26T02:14:41.001Z,6.00
2018-07-26T02:15:41.020Z,6.70
2018-07-26T02:16:41.053Z,6.50
2018-07-26T02:17:41.072Z,8.70
2018-07-26T02:18:41.093Z,8.00
2018-07-26T02:19:41.111Z,8.80
2018-07-26T02:20:41.128Z,9.40
2018-07-26T02:21:41.149Z,10.60
2018-07-26T02:22:41.173Z,9.20
2018-07-26T02:23:41.203Z,7.40
2018-07-26T02:24:41.223Z,11.90
2018-07-26T02:25:41.236Z,11.10
2018-07-26T02:26:41.256Z,7.60
2018-07-26T02:27:41.277Z,7.90
2018-07-26T02:28:41.307Z,6.40
2018-07-26T02:29:41.345Z,6.90
2018-07-26T02:30:41.362Z,7.10
2018-07-26T02:31:41.379Z,12.30
2018-07-26T02:32:41.393Z,7.80
2018-07-26T02:33:41.419Z,9.70
2018-07-26T02:34:41.433Z,11.80
2018-07-26T02:35:41.456Z,8.60
2018-07-26T02:36:41.476Z,7.30
2018-07-26T02:37:41.521Z,8.90
2018-07-26T02:38:41.528Z,9.70
2018-07-26T02:39:41.551Z,6.70
2018-07-26T02:40:41.563Z,8.10
2018-07-26T02:41:41.586Z,8.20
2018-07-26T02:42:41.616Z,6.90
2018-07-26T02:43:41.625Z,8.00
2018-07-26T02:44:41.653Z,8.00
2018-07-26T02:45:41.670Z,7.40
2018-07-26T02:46:41.692Z,7.20
2018-07-26T02:47:41.714Z,7.30
2018-07-26T02:48:41.750Z,11.40
2018-07-26T02:49:41.761Z,7.50
2018-07-26T02:50:41.781Z,10.10
2018-07-26T02:51:41.813Z,8.30
2018-07-26T02:52:41.834Z,7.90
2018-07-26T02:53:41.851Z,6.40
2018-07-26T02:54:41.868Z,8.00
2018-07-26T02:55:41.896Z,6.40
2018-07-26T02:56:41.942Z,7.30
2018-07-26T02:57:41.944Z,8.70
2018-07-26T02:58:41.955Z,7.60
2018-07-26T02:59:41.994Z,8.30
2018-07-26T03:00:42.004Z,7.00
2018-07-26T03:01:42.017Z,7.40
2018-07-26T03:02:42.047Z,6.70
2018-07-26T03:03:42.065Z,8.70
2018-07-26T03:04:42.117Z,7.40
2018-07-26T03:05:42.105Z,8.60
2018-07-26T03:06:42.155Z,8.40
2018-07-26T03:07:42.167Z,8.20
2018-07-26T03:08:42.187Z,9.40
2018-07-26T03:09:42.202Z,10.00
2018-07-26T03:10:42.220Z,9.30
2018-07-26T03:11:42.233Z,9.80
2018-07-26T03:12:42.265Z,10.60
2018-07-26T03:13:42.321Z,8.20
2018-07-26T03:14:42.306Z,7.30
2018-07-26T03:15:42.334Z,9.50
2018-07-26T03:16:42.351Z,9.70
2018-07-26T03:17:42.365Z,12.00
2018-07-26T03:18:42.389Z,9.20
2018-07-26T03:19:42.415Z,8.40
2018-07-26T03:20:42.437Z,7.50
2018-07-26T03:21:42.456Z,10.60
2018-07-26T03:22:42.473Z,6.80
2018-07-26T03:23:42.496Z,10.90
2018-07-26T03:24:42.525Z,12.10
2018-07-26T03:25:42.556Z,10.20
2018-07-26T03:26:42.614Z,7.80
2018-07-26T03:27:42.588Z,7.70
2018-07-26T03:28:42.608Z,8.20
2018-07-26T03:29:42.634Z,10.00
2018-07-26T03:30:42.646Z,8.90
2018-07-26T03:31:42.681Z,8.90
2018-07-26T03:32:42.691Z,8.40
2018-07-26T03:33:42.717Z,8.00
2018-07-26T03:34:42.742Z,10.60
2018-07-26T03:35:42.757Z,11.20
2018-07-26T03:36:42.777Z,10.10
2018-07-26T03:37:42.801Z,7.00
2018-07-26T03:38:42.817Z,10.50
2018-07-26T03:39:42.841Z,9.50
2018-07-26T03:40:42.879Z,8.80
2018-07-26T03:41:42.889Z,6.30
2018-07-26T03:42:42.907Z,8.00
2018-07-26T03:43:42.935Z,7.70
2018-07-26T03:44:42.951Z,11.80
2018-07-26T03:45:42.973Z,7.10
2018-07-26T03:46:43.009Z,9.00
2018-07-26T03:47:43.021Z,10.50
2018-07-26T03:48:43.034Z,7.40
2018-07-26T03:49:43.071Z,9.00
2018-07-26T03:50:43.085Z,6.90
2018-07-26T03:51:43.107Z,9.70
2018-07-26T03:52:43.129Z,9.00
2018-07-26T03:53:43.141Z,10.30
2018-07-26T03:54:43.163Z,10.00
2018-07-26T03:55:43.199Z,9.30
2018-07-26T03:56:43.210Z,10.70
2018-07-26T03:57:43.258Z,10.40
2018-07-26T03:58:43.256Z,8.00
2018-07-26T03:59:43.294Z,8.40
2018-07-26T04:00:43.351Z,8.70
2018-07-26T04:01:43.319Z,10.10
2018-07-26T04:02:43.345Z,7.40
2018-07-26T04:03:43.360Z,8.90
2018-07-26T04:04:43.399Z,8.90
2018-07-26T04:05:43.423Z,9.60
2018-07-26T04:06:43.418Z,8.40
2018-07-26T04:07:43.450Z,11.70
2018-07-26T04:08:43.467Z,9.80
2018-07-26T04:09:43.496Z,7.70
2018-07-26T04:10:43.513Z,7.70
2018-07-26T04:11:43.532Z,18.30
2018-07-26T04:12:43.559Z,10.00
2018-07-26T04:13:43.594Z,10.20
2018-07-26T04:14:43.607Z,13.60
2018-07-26T04:15:43.615Z,10.00
2018-07-26T04:16:43.638Z,8.00
2018-07-26T04:17:43.674Z,8.40
2018-07-26T04:18:43.679Z,8.30
2018-07-26T04:19:43.719Z,9.40
2018-07-26T04:20:43.723Z,8.70
2018-07-26T04:21:43.753Z,8.80
2018-07-26T04:22:43.775Z,8.80
2018-07-26T04:23:43.791Z,9.80
2018-07-26T04:24:43.818Z,10.20
2018-07-26T04:25:43.841Z,14.60
2018-07-26T04:26:43.867Z,6.40
2018-07-26T04:27:43.885Z,14.50
2018-07-26T04:28:43.917Z,12.40
2018-07-26T04:29:43.940Z,7.80
2018-07-26T04:30:43.945Z,8.50
2018-07-26T04:31:44.011Z,7.90
2018-07-26T04:32:44.001Z,12.10
2018-07-26T04:33:44.011Z,9.40
2018-07-26T04:34:44.030Z,10.60
2018-07-26T04:35:44.069Z,9.60
2018-07-26T04:36:44.077Z,7.90
2018-07-26T04:37:44.109Z,10.60
2018-07-26T04:38:44.119Z,10.50
2018-07-26T04:39:44.137Z,9.40
2018-07-26T04:40:44.160Z,8.80
2018-07-26T04:41:44.188Z,11.00
2018-07-26T04:42:44.226Z,10.80
2018-07-26T04:43:44.224Z,9.50
2018-07-26T04:44:44.256Z,10.90
2018-07-26T04:45:44.268Z,10.50
2018-07-26T04:46:44.302Z,9.00
2018-07-26T04:47:44.340Z,11.40
2018-07-26T04:48:44.336Z,11.20
2018-07-26T04:49:44.364Z,12.70
2018-07-26T04:50:44.390Z,8.80
2018-07-26T04:51:44.420Z,10.30
2018-07-26T04:52:44.481Z,8.80
2018-07-26T04:53:44.468Z,12.20
2018-07-26T04:54:44.557Z,9.10
2018-07-26T04:55:44.505Z,6.60
2018-07-26T04:56:44.514Z,12.00
2018-07-26T04:57:44.535Z,13.30
2018-07-26T04:58:44.572Z,11.80
2018-07-26T04:59:44.584Z,7.80
2018-07-26T05:00:44.607Z,8.00
2018-07-26T05:01:44.623Z,6.20
2018-07-26T05:02:44.653Z,6.80
2018-07-26T05:03:44.671Z,6.80
2018-07-26T05:04:44.697Z,8.30
2018-07-26T05:05:44.713Z,9.10
2018-07-26T05:06:44.737Z,8.60
2018-07-26T05:07:44.784Z,6.10
2018-07-26T05:08:44.802Z,6.00
2018-07-26T05:09:44.816Z,6.20
2018-07-26T05:10:44.840Z,6.70
2018-07-26T05:11:44.864Z,7.60
2018-07-26T05:12:44.893Z,8.90
2018-07-26T05:13:44.920Z,6.90
2018-07-26T05:14:44.937Z,7.40
2018-07-26T05:15:44.971Z,8.00
2018-07-26T05:16:44.987Z,9.40
2018-07-26T05:17:45.017Z,6.80
2018-07-26T05:18:45.050Z,5.50
2018-07-26T05:19:45.067Z,7.10
2018-07-26T05:20:45.096Z,8.80
2018-07-26T05:21:45.136Z,7.00
2018-07-26T05:22:45.152Z,8.70
2018-07-26T05:23:45.182Z,6.70
2018-07-26T05:24:45.214Z,7.50
2018-07-26T05:25:45.238Z,6.60
2018-07-26T05:26:45.280Z,7.10
2018-07-26T05:27:45.308Z,7.50
2018-07-26T05:28:45.320Z,7.30
2018-07-26T05:29:45.363Z,11.90
2018-07-26T05:30:45.383Z,9.20
2018-07-26T05:31:45.408Z,8.90
2018-07-26T05:32:45.433Z,6.90
2018-07-26T05:33:45.461Z,5.70
2018-07-26T05:34:45.493Z,7.70
2018-07-26T05:35:45.517Z,5.20
2018-07-26T05:36:45.573Z,9.50
2018-07-26T05:37:45.589Z,4.80
2018-07-26T05:38:45.610Z,5.30
2018-07-26T05:39:45.635Z,5.60
2018-07-26T05:40:45.665Z,5.60
2018-07-26T05:41:45.690Z,6.60
2018-07-26T05:42:45.735Z,4.40
2018-07-26T05:43:45.763Z,6.80
2018-07-26T05:44:45.803Z,4.90
2018-07-26T05:45:45.816Z,12.00
2018-07-26T05:46:45.844Z,4.40
2018-07-26T05:47:45.869Z,4.90
2018-07-26T05:48:45.912Z,6.20
2018-07-26T05:49:45.940Z,4.70
2018-07-26T05:50:45.976Z,5.50
2018-07-26T05:51:45.988Z,7.60
2018-07-26T05:52:46.029Z,5.60
2018-07-26T05:53:46.054Z,6.20
2018-07-26T05:54:46.102Z,7.60
2018-07-26T05:55:46.121Z,8.10
2018-07-26T05:56:46.143Z,9.60
2018-07-26T05:57:46.177Z,7.90
2018-07-26T05:58:46.211Z,5.00
2018-07-26T05:59:46.238Z,8.00
2018-07-26T06:00:46.281Z,4.50
2018-07-26T06:01:46.303Z,10.20
2018-07-26T06:02:46.338Z,4.90
2018-07-26T06:03:46.371Z,5.40
2018-07-26T06:04:46.392Z,7.10
2018-07-26T06:05:46.425Z,5.50
2018-07-26T06:06:46.468Z,5.90
2018-07-26T06:07:46.493Z,5.40
2018-07-26T06:08:46.513Z,7.40
2018-07-26T06:09:46.562Z,8.10
2018-07-26T06:10:46.589Z,8.00
2018-07-26T06:11:46.600Z,8.40
2018-07-26T06:12:46.646Z,6.90
2018-07-26T06:13:46.684Z,5.10
2018-07-26T06:14:46.701Z,11.50
2018-07-26T06:15:46.745Z,5.90
2018-07-26T06:16:46.774Z,10.10
2018-07-26T06:17:46.832Z,6.70
2018-07-26T06:18:46.827Z,6.00
2018-07-26T06:19:46.860Z,4.70
2018-07-26T06:20:46.889Z,5.30
2018-07-26T06:21:46.924Z,8.20
2018-07-26T06:22:46.948Z,5.90
2018-07-26T06:23:46.988Z,6.10
2018-07-26T06:24:47.009Z,4.40
2018-07-26T06:25:47.048Z,5.00
2018-07-26T06:26:47.071Z,4.20
2018-07-26T06:27:47.108Z,5.10
2018-07-26T06:28:47.137Z,4.70
2018-07-26T06:29:47.169Z,4.20
2018-07-26T06:30:47.210Z,6.40
2018-07-26T06:31:47.234Z,6.50
2018-07-26T06:32:47.277Z,5.60
2018-07-26T06:33:47.313Z,4.10
2018-07-26T06:34:47.336Z,7.80
2018-07-26T06:35:47.363Z,6.10
2018-07-26T06:36:47.397Z,5.70
2018-07-26T06:37:47.432Z,6.20
2018-07-26T06:38:47.461Z,6.10
2018-07-26T06:39:47.494Z,8.50
2018-07-26T06:40:47.525Z,8.50
2018-07-26T06:41:47.558Z,7.20
2018-07-26T06:42:47.591Z,3.90
2018-07-26T06:43:47.628Z,6.00
2018-07-26T06:44:47.653Z,7.40
2018-07-26T06:45:47.689Z,7.00
2018-07-26T06:46:47.721Z,8.00
2018-07-26T06:47:47.755Z,5.50
2018-07-26T06:48:47.780Z,7.90
2018-07-26T06:49:47.827Z,9.00
2018-07-26T06:50:47.840Z,6.40
2018-07-26T06:51:47.876Z,5.30
2018-07-26T06:52:47.914Z,8.00
2018-07-26T06:53:47.941Z,8.00
2018-07-26T06:54:47.974Z,7.60
2018-07-26T06:55:48.007Z,3.30
2018-07-26T06:56:48.053Z,5.60
2018-07-26T06:57:48.075Z,5.20
2018-07-26T06:58:48.108Z,8.20
2018-07-26T06:59:48.139Z,5.40
2018-07-26T07:00:48.239Z,5.40
2018-07-26T07:01:48.200Z,7.20
2018-07-26T07:02:48.241Z,5.70
2018-07-26T07:03:48.267Z,6.00
2018-07-26T07:04:48.302Z,5.20
2018-07-26T07:05:48.327Z,4.40
2018-07-26T07:06:48.373Z,7.10
2018-07-26T07:07:48.401Z,7.20
2018-07-26T07:08:48.429Z,6.20
2018-07-26T07:09:48.470Z,7.20
2018-07-26T07:10:48.508Z,6.20
2018-07-26T07:11:48.537Z,7.00
2018-07-26T07:12:48.582Z,3.30
2018-07-26T07:13:48.593Z,4.20
2018-07-26T07:14:48.631Z,4.90
2018-07-26T07:15:48.661Z,6.30
2018-07-26T07:16:48.699Z,3.80
2018-07-26T07:17:48.741Z,4.00
2018-07-26T07:18:48.767Z,6.60
2018-07-26T07:19:48.792Z,5.60
2018-07-26T07:20:48.831Z,5.90
2018-07-26T07:21:48.857Z,7.90
2018-07-26T07:22:48.890Z,5.50
2018-07-26T07:23:48.928Z,5.50
2018-07-26T07:24:48.980Z,5.40
2018-07-26T07:25:49.008Z,5.30
2018-07-26T07:26:49.025Z,5.20
2018-07-26T07:27:49.120Z,5.00
2018-07-26T07:28:49.105Z,3.70
2018-07-26T07:29:49.144Z,6.80
2018-07-26T07:30:49.164Z,5.60
2018-07-26T07:31:49.204Z,9.40
2018-07-26T07:32:49.225Z,3.00
2018-07-26T07:33:49.263Z,3.80
2018-07-26T07:34:49.307Z,6.50
2018-07-26T07:35:49.340Z,6.70
2018-07-26T07:36:49.365Z,5.00
2018-07-26T07:37:49.388Z,2.70
2018-07-26T07:38:49.425Z,5.40
2018-07-26T07:39:49.456Z,4.80
2018-07-26T07:40:49.498Z,3.50
2018-07-26T07:41:49.539Z,3.00
2018-07-26T07:42:49.564Z,2.40
2018-07-26T07:43:49.599Z,4.20
2018-07-26T07:44:49.628Z,5.40
2018-07-26T07:45:49.663Z,2.20
2018-07-26T07:46:49.714Z,2.60
2018-07-26T07:47:49.757Z,6.30
2018-07-26T07:48:49.771Z,4.50
2018-07-26T07:49:49.796Z,4.30
2018-07-26T07:50:49.836Z,3.10
2018-07-26T07:51:49.878Z,2.90
2018-07-26T07:52:49.945Z,2.00
2018-07-26T07:53:49.933Z,4.90
2018-07-26T07:54:49.964Z,1.80
2018-07-26T07:55:49.992Z,6.80
2018-07-26T07:56:50.044Z,3.40
2018-07-26T07:57:50.126Z,2.70
2018-07-26T07:58:50.103Z,5.00
2018-07-26T07:59:50.180Z,4.00
2018-07-26T08:00:50.164Z,4.70
2018-07-26T08:01:50.212Z,1.80
2018-07-26T08:02:50.229Z,4.10
2018-07-26T08:03:50.279Z,3.30
2018-07-26T08:04:50.293Z,4.40
2018-07-26T08:05:50.325Z,4.60
2018-07-26T08:06:50.402Z,2.20
2018-07-26T08:07:50.396Z,1.80
2018-07-26T08:08:50.472Z,2.40
2018-07-26T08:09:50.469Z,1.40
2018-07-26T08:10:50.507Z,1.80
2018-07-26T08:11:50.534Z,2.60
2018-07-26T08:12:50.565Z,3.00
2018-07-26T08:13:50.598Z,1.50
2018-07-26T08:14:50.634Z,2.40
2018-07-26T08:15:50.660Z,2.80
2018-07-26T08:16:50.696Z,1.20
2018-07-26T08:17:50.724Z,2.30
2018-07-26T08:18:50.759Z,1.80
2018-07-26T08:19:50.802Z,2.10
2018-07-26T08:20:50.827Z,2.50
2018-07-26T08:21:50.864Z,2.50
2018-07-26T08:22:50.900Z,2.60
2018-07-26T08:23:50.923Z,2.00
2018-07-26T08:24:50.959Z,3.30
2018-07-26T08:25:50.983Z,2.40
2018-07-26T08:26:51.016Z,2.20
2018-07-26T08:27:51.061Z,2.90
2018-07-26T08:28:51.085Z,1.50
2018-07-26T08:29:51.119Z,1.40
2018-07-26T08:30:51.148Z,2.50
2018-07-26T08:31:51.177Z,3.20
2018-07-26T08:32:51.215Z,2.70
2018-07-26T08:33:51.241Z,1.70
2018-07-26T08:34:51.277Z,4.00
2018-07-26T08:35:51.315Z,3.40
2018-07-26T08:36:51.333Z,2.00
2018-07-26T08:37:51.376Z,1.70
2018-07-26T08:38:51.402Z,3.60
2018-07-26T08:39:51.430Z,2.50
2018-07-26T08:40:51.459Z,3.90
2018-07-26T08:41:51.490Z,6.20
2018-07-26T08:42:51.519Z,2.00
2018-07-26T08:43:51.548Z,2.50
2018-07-26T08:44:51.581Z,2.70
2018-07-26T08:45:51.625Z,3.30
2018-07-26T08:46:51.643Z,4.70
2018-07-26T08:47:51.675Z,2.60
2018-07-26T08:48:51.751Z,3.00
2018-07-26T08:49:51.731Z,4.40
2018-07-26T08:50:51.769Z,3.80
2018-07-26T08:51:51.790Z,3.30
2018-07-26T08:52:51.818Z,4.20
2018-07-26T08:53:51.859Z,4.70
2018-07-26T08:54:51.870Z,5.80
2018-07-26T08:55:51.911Z,6.20
2018-07-26T08:56:51.943Z,4.10
2018-07-26T08:57:51.962Z,6.70
2018-07-26T08:58:52.009Z,2.60
2018-07-26T08:59:52.019Z,4.30
2018-07-26T09:00:52.067Z,4.00
2018-07-26T09:01:52.070Z,6.00
2018-07-26T09:02:52.099Z,3.40
2018-07-26T09:03:52.145Z,2.20
2018-07-26T09:04:52.163Z,2.10
2018-07-26T09:05:52.185Z,7.90
2018-07-26T09:06:52.210Z,4.00
2018-07-26T09:07:52.255Z,2.50
2018-07-26T09:08:52.282Z,2.40
2018-07-26T09:09:52.354Z,2.00
2018-07-26T09:10:52.346Z,4.20
2018-07-26T09:11:52.352Z,8.80
2018-07-26T09:12:52.390Z,4.00
2018-07-26T09:13:52.510Z,5.10
2018-07-26T09:14:52.439Z,5.20
2018-07-26T09:15:52.462Z,2.40
2018-07-26T09:16:52.496Z,2.50
2018-07-26T09:17:52.517Z,4.10
2018-07-26T09:18:52.549Z,2.20
2018-07-26T09:19:52.658Z,2.70
2018-07-26T09:20:52.600Z,2.10
2018-07-26T09:21:52.633Z,2.40
2018-07-26T09:22:52.682Z,4.80
2018-07-26T09:23:52.682Z,5.90
2018-07-26T09:24:52.731Z,7.40
2018-07-26T09:25:52.739Z,5.60
2018-07-26T09:26:52.764Z,4.80
2018-07-26T09:27:52.808Z,3.20
2018-07-26T09:28:52.869Z,8.20
2018-07-26T09:29:52.852Z,3.30
2018-07-26T09:30:52.889Z,7.10
2018-07-26T09:31:52.923Z,4.20
2018-07-26T09:32:53.006Z,3.00
2018-07-26T09:33:52.978Z,4.80
2018-07-26T09:34:52.979Z,2.70
2018-07-26T09:35:53.009Z,3.60
2018-07-26T09:36:53.039Z,2.90
2018-07-26T09:37:53.091Z,2.50
2018-07-26T09:38:53.096Z,2.40
2018-07-26T09:39:53.130Z,2.70
2018-07-26T09:40:53.151Z,5.20
2018-07-26T09:41:53.174Z,4.60
2018-07-26T09:42:53.202Z,1.80
2018-07-26T09:43:53.232Z,4.20
2018-07-26T09:44:53.282Z,6.20
2018-07-26T09:45:53.280Z,5.70
2018-07-26T09:46:53.327Z,1.60
2018-07-26T09:47:53.347Z,6.10
2018-07-26T09:48:53.367Z,1.90
2018-07-26T09:49:53.390Z,2.10
2018-07-26T09:50:53.423Z,1.90
2018-07-26T09:51:53.454Z,5.20
2018-07-26T09:52:53.478Z,3.90
2018-07-26T09:53:53.516Z,6.70
2018-07-26T09:54:53.584Z,5.30
2018-07-26T09:55:53.579Z,6.30
2018-07-26T09:56:53.593Z,3.30
2018-07-26T09:57:53.636Z,2.20
2018-07-26T09:58:53.643Z,2.10
2018-07-26T09:59:53.665Z,2.50
2018-07-26T10:00:53.694Z,2.00
2018-07-26T10:01:53.713Z,5.50
2018-07-26T10:02:53.743Z,3.30
2018-07-26T10:03:53.770Z,1.80
2018-07-26T10:04:53.798Z,2.90
2018-07-26T10:05:53.826Z,2.90
2018-07-26T10:06:53.896Z,4.70
2018-07-26T10:07:53.887Z,3.60
2018-07-26T10:08:53.905Z,5.30
2018-07-26T10:09:53.929Z,3.20
2018-07-26T10:10:53.973Z,2.00
2018-07-26T10:11:53.999Z,3.90
2018-07-26T10:12:54.012Z,4.30
2018-07-26T10:13:54.042Z,2.50
2018-07-26T10:14:54.066Z,4.80
2018-07-26T10:15:54.120Z,1.60
2018-07-26T10:16:54.126Z,3.10
2018-07-26T10:17:54.154Z,2.50
2018-07-26T10:18:54.170Z,2.90
2018-07-26T10:19:54.206Z,3.70
2018-07-26T10:20:54.231Z,3.20
2018-07-26T10:21:54.266Z,7.00
2018-07-26T10:22:54.289Z,2.30
2018-07-26T10:23:54.316Z,3.40
2018-07-26T10:24:54.347Z,3.80
2018-07-26T10:25:54.365Z,2.80
2018-07-26T10:26:54.401Z,6.70
2018-07-26T10:27:54.452Z,2.90
2018-07-26T10:28:54.452Z,2.40
2018-07-26T10:29:54.470Z,3.30
2018-07-26T10:30:54.495Z,2.00
2018-07-26T10:31:54.530Z,1.90
2018-07-26T10:32:54.560Z,2.20
2018-07-26T10:33:54.582Z,1.80
2018-07-26T10:34:54.608Z,4.80
2018-07-26T10:35:54.637Z,3.30
2018-07-26T10:36:54.662Z,3.60
2018-07-26T10:37:54.693Z,5.40
2018-07-26T10:38:54.722Z,3.10
2018-07-26T10:39:54.748Z,5.50
2018-07-26T10:40:54.769Z,3.10
2018-07-26T10:41:54.801Z,2.10
2018-07-26T10:42:54.823Z,2.20
2018-07-26T10:43:54.854Z,1.80
2018-07-26T10:44:54.879Z,4.60
2018-07-26T10:45:54.908Z,4.20
2018-07-26T10:46:54.932Z,3.80
2018-07-26T10:47:54.966Z,9.50
2018-07-26T10:48:54.997Z,4.10
2018-07-26T10:49:55.063Z,4.70
2018-07-26T10:50:55.051Z,5.10
2018-07-26T10:51:55.071Z,3.80
2018-07-26T10:52:55.095Z,2.80
2018-07-26T10:53:55.126Z,3.60
2018-07-26T10:54:55.162Z,3.00
2018-07-26T10:55:55.176Z,5.90
2018-07-26T10:56:55.214Z,4.60
2018-07-26T10:57:55.231Z,4.30
2018-07-26T10:58:55.269Z,1.90
2018-07-26T10:59:55.287Z,2.20
2018-07-26T11:00:55.313Z,3.40
2018-07-26T11:01:55.340Z,2.50
2018-07-26T11:02:55.380Z,3.30
2018-07-26T11:03:55.397Z,3.10
2018-07-26T11:04:55.426Z,4.40
2018-07-26T11:05:55.448Z,2.70
2018-07-26T11:06:55.472Z,7.10
2018-07-26T11:07:55.504Z,2.50
2018-07-26T11:08:55.535Z,3.60
2018-07-26T11:09:55.570Z,2.90
2018-07-26T11:10:55.583Z,3.90
2018-07-26T11:11:55.630Z,3.20
2018-07-26T11:12:55.641Z,3.10
2018-07-26T11:13:55.664Z,2.90
2018-07-26T11:14:55.743Z,5.90
2018-07-26T11:15:55.716Z,3.40
2018-07-26T11:16:55.748Z,5.00
2018-07-26T11:17:55.775Z,4.10
2018-07-26T11:18:55.870Z,2.70
2018-07-26T11:19:55.822Z,3.60
2018-07-26T11:20:55.857Z,3.20
2018-07-26T11:21:55.881Z,3.00
2018-07-26T11:22:55.909Z,3.60
2018-07-26T11:23:55.945Z,3.10
2018-07-26T11:24:55.966Z,5.20
2018-07-26T11:25:55.998Z,2.60
2018-07-26T11:26:56.038Z,3.60
2018-07-26T11:27:56.067Z,2.40
2018-07-26T11:28:56.090Z,4.50
2018-07-26T11:29:56.165Z,5.20
2018-07-26T11:30:56.129Z,2.10
2018-07-26T11:31:56.165Z,6.20
2018-07-26T11:32:56.188Z,6.10
2018-07-26T11:33:56.205Z,3.70
2018-07-26T11:34:56.228Z,3.10
2018-07-26T11:35:56.272Z,2.50
2018-07-26T11:36:56.291Z,3.60
2018-07-26T11:37:56.368Z,3.70
2018-07-26T11:38:56.358Z,4.10
2018-07-26T11:39:56.367Z,3.60
2018-07-26T11:40:56.417Z,5.00
2018-07-26T11:41:56.422Z,5.80
2018-07-26T11:42:56.449Z,4.50
2018-07-26T11:43:56.479Z,2.80
2018-07-26T11:44:56.509Z,2.30
2018-07-26T11:45:56.536Z,8.60
2018-07-26T11:46:56.572Z,3.70
2018-07-26T11:47:56.601Z,3.50
2018-07-26T11:48:56.627Z,2.20
2018-07-26T11:49:56.669Z,3.10
2018-07-26T11:50:56.683Z,2.50
2018-07-26T11:51:56.697Z,5.60
2018-07-26T11:52:56.729Z,3.50
2018-07-26T11:53:56.756Z,2.30
2018-07-26T11:54:56.790Z,5.80
2018-07-26T11:55:56.810Z,5.20
2018-07-26T11:56:56.849Z,3.60
2018-07-26T11:57:56.867Z,2.30
2018-07-26T11:58:56.899Z,2.10
2018-07-26T11:59:56.918Z,3.50
2018-07-26T12:00:56.948Z,2.40
2018-07-26T12:01:56.983Z,3.50
2018-07-26T12:02:57.010Z,5.60
2018-07-26T12:03:57.039Z,2.50
2018-07-26T12:04:57.067Z,5.20
2018-07-26T12:05:57.091Z,2.40
2018-07-26T12:06:57.114Z,2.90
2018-07-26T12:07:57.144Z,3.10
2018-07-26T12:08:57.175Z,2.50
2018-07-26T12:09:57.209Z,7.10
2018-07-26T12:10:57.225Z,3.00
2018-07-26T12:11:57.248Z,4.80
2018-07-26T12:12:57.287Z,2.90
2018-07-26T12:13:57.304Z,5.20
2018-07-26T12:14:57.375Z,3.10
2018-07-26T12:15:57.365Z,6.70
2018-07-26T12:16:57.385Z,3.50
2018-07-26T12:17:57.422Z,3.80
2018-07-26T12:18:57.448Z,3.00
2018-07-26T12:19:57.475Z,2.30
2018-07-26T12:20:57.503Z,3.10
2018-07-26T12:21:57.524Z,2.50
2018-07-26T12:22:57.566Z,2.60
2018-07-26T12:23:57.590Z,4.20
2018-07-26T12:24:57.608Z,2.60
2018-07-26T12:25:57.638Z,4.70
2018-07-26T12:26:57.696Z,4.30
2018-07-26T12:27:57.692Z,5.50
2018-07-26T12:28:57.726Z,4.30
2018-07-26T12:29:57.747Z,3.40
2018-07-26T12:30:57.791Z,2.50
2018-07-26T12:31:57.801Z,3.70
2018-07-26T12:32:57.835Z,2.40
2018-07-26T12:33:57.865Z,4.20
2018-07-26T12:34:57.897Z,3.70
2018-07-26T12:35:58.022Z,3.00
2018-07-26T12:36:57.961Z,3.80
2018-07-26T12:37:57.973Z,2.10
2018-07-26T12:38:58.001Z,4.90
2018-07-26T12:39:58.029Z,5.20
2018-07-26T12:40:58.052Z,4.00
2018-07-26T12:41:58.075Z,5.40
2018-07-26T12:42:58.105Z,7.80
2018-07-26T12:43:58.134Z,3.40
2018-07-26T12:44:58.156Z,4.00
2018-07-26T12:45:58.194Z,5.10
2018-07-26T12:46:58.213Z,2.70
2018-07-26T12:47:58.241Z,3.40
2018-07-26T12:48:58.278Z,4.40
2018-07-26T12:49:58.291Z,3.70
2018-07-26T12:50:58.322Z,5.70
2018-07-26T12:51:58.361Z,3.10
2018-07-26T12:52:58.390Z,3.20
2018-07-26T12:53:58.405Z,3.40
2018-07-26T12:54:58.435Z,3.50
2018-07-26T12:55:58.462Z,4.80
2018-07-26T12:56:58.485Z,5.50
2018-07-26T12:57:58.510Z,3.10
2018-07-26T12:58:58.539Z,2.10
2018-07-26T12:59:58.572Z,5.60
2018-07-26T13:00:58.594Z,3.40
2018-07-26T13:01:58.620Z,3.10
2018-07-26T13:02:58.647Z,4.10
2018-07-26T13:03:58.695Z,4.20
2018-07-26T13:04:58.714Z,2.00
2018-07-26T13:05:58.733Z,5.30
2018-07-26T13:06:58.771Z,2.70
2018-07-26T13:07:58.786Z,5.00
2018-07-26T13:08:58.815Z,1.60
2018-07-26T13:09:58.845Z,3.30
2018-07-26T13:10:58.875Z,4.30
2018-07-26T13:11:58.918Z,3.30
2018-07-26T13:12:58.925Z,3.20
2018-07-26T13:13:58.951Z,2.20
2018-07-26T13:14:58.974Z,2.30
2018-07-26T13:15:59.007Z,4.00
2018-07-26T13:16:59.031Z,5.90